Time;durP1;ratioP1;P1;durP2;ratioP2;P2;SDS_P1;SDS_P2;PMS_P1;PMS_P2;Temp;Humidity;BMP_temperature;BMP_pressure;BME280_temperature;BME280_humidity;BME280_pressure;Samples;Min_cycle;Max_cycle;Signal;HPM_P1;HPM_P2
2021/08/18 05:01:14;;;;;;;8.13;4.18;;;;;;;24.33;60.81;94553.88;5561577;23;20591;-75
2021/08/18 05:03:39;;;;;;;6.70;4.47;;;;;;;25.56;56.90;94562.84;4923016;29;20118;-76
2021/08/18 05:06:05;;;;;;;5.28;4.05;;;;;;;25.92;54.87;94558.13;4951143;29;20027;-74
2021/08/18 05:08:30;;;;;;;10.95;4.53;;;;;;;25.89;54.56;94556.03;4917351;29;20039;-74
2021/08/18 05:10:56;;;;;;;7.35;4.57;;;;;;;26.50;52.57;94556.38;4942635;28;20465;-75
2021/08/18 05:13:21;;;;;;;7.38;3.85;;;;;;;27.14;51.31;94556.03;4912322;29;20036;-75
2021/08/18 05:15:47;;;;;;;6.72;3.88;;;;;;;27.40;50.24;94555.72;4931157;29;20031;-74
2021/08/18 05:18:12;;;;;;;6.35;4.47;;;;;;;27.70;49.34;94550.84;4931185;29;20027;-75
2021/08/18 05:20:38;;;;;;;8.27;4.00;;;;;;;27.75;49.02;94549.97;4914082;29;20032;-74
2021/08/18 05:23:03;;;;;;;5.55;3.53;;;;;;;28.78;46.11;94541.69;4913909;29;20039;-75
2021/08/18 05:25:28;;;;;;;6.00;4.40;;;;;;;28.34;46.82;94548.56;4930537;29;20034;-75
2021/08/18 05:27:54;;;;;;;4.80;3.75;;;;;;;28.83;46.49;94548.03;4914290;28;20031;-74
2021/08/18 05:30:19;;;;;;;7.78;3.72;;;;;;;28.70;45.79;94549.59;4931679;29;20031;-71
2021/08/18 05:32:45;;;;;;;4.75;4.22;;;;;;;29.95;42.63;94552.75;4932413;28;20031;-75
2021/08/18 05:35:13;;;;;;;7.32;3.42;;;;;;;30.23;42.54;94555.03;4930796;28;20445;-74
2021/08/18 05:37:38;;;;;;;8.90;3.63;;;;;;;30.11;42.61;94559.34;4949620;28;20039;-76
2021/08/18 05:40:05;;;;;;;5.03;3.28;;;;;;;30.88;40.46;94548.38;4933127;29;21226;-74
2021/08/18 05:42:30;;;;;;;4.68;3.53;;;;;;;30.98;40.69;94550.81;4931416;29;20031;-75
2021/08/18 05:44:55;;;;;;;4.05;3.20;;;;;;;31.07;40.06;94557.00;4949516;28;20031;-73
2021/08/18 05:47:21;;;;;;;4.72;3.15;;;;;;;31.59;38.78;94555.31;4940111;28;20027;-74
2021/08/18 05:49:48;;;;;;;4.88;2.92;;;;;;;32.08;38.41;94560.25;4950558;29;20027;-72
2021/08/18 05:52:14;;;;;;;4.28;3.42;;;;;;;32.64;36.63;94559.31;4932056;29;20027;-74
2021/08/18 05:54:39;;;;;;;3.38;3.03;;;;;;;32.34;37.07;94560.25;4950020;29;20536;-74
2021/08/18 05:57:06;;;;;;;4.05;3.08;;;;;;;32.00;37.58;94555.66;4932297;29;20460;-74
2021/08/18 05:59:32;;;;;;;5.57;2.83;;;;;;;32.23;37.93;94548.28;4932725;29;20097;-74
2021/08/18 06:01:57;;;;;;;7.05;3.60;;;;;;;32.36;36.59;94553.50;4949769;28;20152;-76
2021/08/18 06:04:23;;;;;;;6.97;3.47;;;;;;;30.86;38.75;94553.25;4931619;29;20027;-74
2021/08/18 06:06:48;;;;;;;7.43;3.40;;;;;;;28.15;44.55;94564.59;4932251;29;20024;-74
2021/08/18 06:09:13;;;;;;;4.30;3.00;;;;;;;28.35;45.45;94558.97;4947985;29;20043;-75
2021/08/18 06:11:41;;;;;;;7.88;3.70;;;;;;;28.68;44.83;94554.41;4950188;29;20035;-74
2021/08/18 06:14:07;;;;;;;9.00;3.58;;;;;;;27.87;46.40;94566.28;4949423;29;20467;-74
2021/08/18 06:16:32;;;;;;;6.47;3.17;;;;;;;28.45;44.21;94555.34;4932166;29;20027;-74
2021/08/18 06:18:59;;;;;;;5.55;3.00;;;;;;;29.71;42.05;94556.44;4932628;29;20086;-74
2021/08/18 06:21:25;;;;;;;4.13;3.03;;;;;;;32.36;37.31;94553.50;4948760;29;20035;-74
2021/08/18 06:23:52;;;;;;;6.07;3.20;;;;;;;32.43;36.03;94550.31;4901117;29;20504;-74
2021/08/18 06:26:18;;;;;;;5.37;3.20;;;;;;;33.15;35.37;94547.66;4915692;29;20035;-74
2021/08/18 06:28:43;;;;;;;6.45;3.88;;;;;;;32.67;36.15;94545.25;4949695;29;20309;-74
2021/08/18 06:31:09;;;;;;;4.50;3.17;;;;;;;33.12;35.03;94550.19;4948440;29;20035;-74
2021/08/18 06:33:34;;;;;;;5.60;3.00;;;;;;;33.26;34.87;94553.47;4915241;29;20039;-72
2021/08/18 06:36:01;;;;;;;3.38;3.08;;;;;;;33.02;35.00;94545.94;4930820;29;20073;-74
2021/08/18 06:38:31;;;;;;;5.20;3.30;;;;;;;33.33;33.96;94551.03;4930865;29;20094;-74
2021/08/18 06:40:57;;;;;;;5.10;3.40;;;;;;;33.24;34.89;94553.78;4951344;28;20028;-74
2021/08/18 06:43:22;;;;;;;4.43;3.03;;;;;;;31.82;37.32;94551.41;4934298;29;20078;-72
2021/08/18 06:45:48;;;;;;;3.22;2.72;;;;;;;28.71;42.76;94556.50;4920065;29;20023;-74
2021/08/18 06:48:13;;;;;;;4.13;3.65;;;;;;;28.44;43.67;94559.88;4952309;28;20039;-74
2021/08/18 06:50:39;;;;;;;3.50;3.17;;;;;;;28.14;43.90;94552.34;4952312;28;20030;-73
2021/08/18 06:53:04;;;;;;;6.43;3.22;;;;;;;27.64;46.04;94552.00;4951527;29;20035;-74
2021/08/18 06:55:30;;;;;;;3.58;3.25;;;;;;;27.81;44.88;94542.69;4951779;29;20034;-73
2021/08/18 06:57:56;;;;;;;5.30;2.78;;;;;;;27.65;44.91;94536.78;4934896;29;20034;-75
2021/08/18 07:00:21;;;;;;;3.72;3.08;;;;;;;28.19;43.81;94544.28;4934216;29;20040;-74
2021/08/18 07:02:49;;;;;;;4.32;2.83;;;;;;;28.14;44.03;94542.50;4934176;29;20028;-74
2021/08/18 07:05:14;;;;;;;4.82;2.90;;;;;;;29.74;41.96;94539.81;4918314;29;20559;-73
2021/08/18 07:07:40;;;;;;;5.10;3.22;;;;;;;31.48;36.90;94541.38;4918357;29;20070;-73
2021/08/18 07:10:06;;;;;;;6.85;3.20;;;;;;;28.90;42.45;94537.78;4951616;29;20039;-74
2021/08/18 07:12:31;;;;;;;3.20;2.90;;;;;;;28.01;43.81;94547.72;4933462;29;20086;-74
2021/08/18 07:14:57;;;;;;;3.15;2.85;;;;;;;26.95;47.35;94544.53;4951663;29;20378;-73
2021/08/18 07:17:22;;;;;;;4.97;3.50;;;;;;;27.94;45.44;94548.09;4939576;28;20022;-72
2021/08/18 07:19:48;;;;;;;5.60;3.58;;;;;;;27.87;45.04;94541.56;4965555;28;20030;-73
2021/08/18 07:22:13;;;;;;;3.58;3.03;;;;;;;28.36;44.54;94539.19;4952552;28;20078;-73
2021/08/18 07:24:39;;;;;;;6.00;2.90;;;;;;;28.04;44.86;94539.16;4970478;28;20345;-73
2021/08/18 07:27:05;;;;;;;8.80;3.30;;;;;;;27.61;45.23;94533.91;4952609;28;20034;-74
2021/08/18 07:29:30;;;;;;;4.03;3.28;;;;;;;28.05;44.93;94528.25;4937054;29;20102;-73
2021/08/18 07:31:56;;;;;;;3.38;2.92;;;;;;;27.59;45.29;94530.75;4931575;29;20034;-75
2021/08/18 07:34:21;;;;;;;4.75;3.10;;;;;;;27.42;45.81;94535.72;4916236;29;20024;-74
2021/08/18 07:36:46;;;;;;;4.10;3.35;;;;;;;28.31;45.01;94530.50;4933221;29;20042;-74
2021/08/18 07:39:13;;;;;;;6.55;3.03;;;;;;;27.16;46.77;94529.16;4936115;29;20023;-74
2021/08/18 07:41:38;;;;;;;3.60;3.30;;;;;;;27.89;45.81;94536.72;4917684;29;20027;-73
2021/08/18 07:44:04;;;;;;;5.95;3.20;;;;;;;28.02;45.10;94536.78;4933225;29;20046;-74
2021/08/18 07:46:29;;;;;;;6.68;3.70;;;;;;;27.84;45.72;94534.16;4932906;29;20034;-72
2021/08/18 07:48:55;;;;;;;8.43;3.60;;;;;;;28.09;45.01;94531.94;4950618;29;20545;-75
2021/08/18 07:51:20;;;;;;;5.65;3.47;;;;;;;28.00;47.12;94538.94;4931175;28;20035;-73
2021/08/18 07:53:46;;;;;;;4.85;3.50;;;;;;;28.16;45.80;94534.19;4953789;28;20035;-74
2021/08/18 07:56:11;;;;;;;3.78;3.42;;;;;;;28.30;45.64;94529.72;4932428;29;20067;-75
2021/08/18 07:58:37;;;;;;;7.05;3.30;;;;;;;28.29;45.48;94530.78;4949043;29;20556;-74
2021/08/18 08:01:04;;;;;;;6.93;3.63;;;;;;;28.50;45.65;94528.59;4929942;28;20090;-74
2021/08/18 08:03:29;;;;;;;5.43;4.18;;;;;;;28.65;44.74;94525.66;4933502;28;20034;-73
2021/08/18 08:05:55;;;;;;;5.57;4.20;;;;;;;28.21;46.70;94528.81;4915561;29;20027;-73
2021/08/18 08:08:20;;;;;;;5.18;3.80;;;;;;;27.45;48.33;94526.44;4916269;29;20027;-74
2021/08/18 08:10:46;;;;;;;8.00;3.85;;;;;;;27.55;46.56;94516.41;4948110;28;20114;-74
2021/08/18 08:13:11;;;;;;;6.30;4.25;;;;;;;27.60;47.74;94526.22;4932304;28;20039;-74
2021/08/18 08:15:37;;;;;;;6.45;3.88;;;;;;;27.34;46.20;94523.06;4940143;28;20030;-74
2021/08/18 08:18:02;;;;;;;6.97;4.13;;;;;;;26.80;48.54;94519.94;4939504;28;20043;-74
2021/08/18 08:20:28;;;;;;;5.18;3.90;;;;;;;27.96;47.21;94523.84;4958467;28;20031;-74
2021/08/18 08:22:54;;;;;;;5.85;3.60;;;;;;;28.57;45.32;94521.78;4952963;28;20042;-74
2021/08/18 08:25:20;;;;;;;4.03;3.63;;;;;;;28.34;44.93;94522.72;4940348;28;20493;-74
2021/08/18 08:27:45;;;;;;;4.97;4.10;;;;;;;27.54;47.70;94514.06;4956887;28;20031;-74
2021/08/18 08:30:11;;;;;;;6.97;3.70;;;;;;;28.20;46.32;94484.56;4955591;28;20026;-73
2021/08/18 08:32:38;;;;;;;5.30;4.63;;;;;;;28.67;46.03;94518.19;4941330;28;20188;-72
2021/08/18 08:35:04;;;;;;;5.90;3.88;;;;;;;28.65;45.49;94513.13;4926080;28;20412;-74
2021/08/18 08:37:29;;;;;;;10.68;3.90;;;;;;;28.39;46.23;94509.31;4940811;28;20445;-77
2021/08/18 08:39:55;;;;;;;5.70;4.72;;;;;;;28.21;45.08;94505.63;4958249;28;20082;-71
2021/08/18 08:42:20;;;;;;;5.65;4.38;;;;;;;28.31;45.54;94502.00;4955282;28;20023;-74
2021/08/18 08:44:45;;;;;;;7.35;4.45;;;;;;;27.80;47.13;94496.66;4931386;29;20035;-74
2021/08/18 08:47:11;;;;;;;4.50;4.07;;;;;;;28.22;46.03;94490.41;4912797;29;20036;-72
2021/08/18 08:49:36;;;;;;;4.80;4.18;;;;;;;28.69;44.88;94498.13;4931140;29;20043;-74
2021/08/18 08:52:02;;;;;;;7.00;5.72;;;;;;;28.10;45.35;94492.72;4932600;29;20039;-74
2021/08/18 08:54:28;;;;;;;5.38;4.88;;;;;;;28.35;45.89;94481.69;4954746;28;20114;-75
2021/08/18 08:56:53;;;;;;;8.15;4.75;;;;;;;28.82;45.49;94491.22;4948025;29;20281;-74
2021/08/18 08:59:19;;;;;;;5.68;4.50;;;;;;;28.33;47.21;94486.50;4933001;29;20038;-75
2021/08/18 09:02:03;;;;;;;6.53;4.93;;;;;;;28.92;46.23;94491.03;4930789;29;20665;-74
2021/08/18 09:04:39;;;;;;;5.15;4.75;;;;;;;28.68;46.39;94495.75;4947760;29;20031;-74
2021/08/18 09:07:12;;;;;;;6.03;4.68;;;;;;;28.95;45.58;94484.31;4944806;28;20097;-75
2021/08/18 09:09:40;;;;;;;6.72;5.28;;;;;;;28.66;45.60;94493.41;4896642;29;20020;-74
2021/08/18 09:12:16;;;;;;;5.35;4.47;;;;;;;28.68;45.87;94485.09;4906848;29;20118;-72
2021/08/18 09:14:41;;;;;;;8.25;4.70;;;;;;;28.99;45.60;94490.66;4915271;29;20468;-75
2021/08/18 09:17:33;;;;;;;6.60;5.57;;;;;;;29.19;45.34;94490.22;4930270;29;20024;-74
2021/08/18 09:20:00;;;;;;;6.28;5.35;;;;;;;29.12;45.79;94479.94;4945481;28;20031;-74
2021/08/18 09:22:26;;;;;;;6.88;4.63;;;;;;;29.57;44.78;94483.56;4930057;29;20035;-73
2021/08/18 09:25:08;;;;;;;8.68;6.30;;;;;;;28.83;45.33;94474.16;4948148;29;20027;-76
2021/08/18 09:27:33;;;;;;;8.45;5.43;;;;;;;29.28;44.67;94477.81;4932271;29;20039;-73
2021/08/18 09:29:59;;;;;;;6.95;5.38;;;;;;;28.62;46.56;94483.56;4930348;29;20078;-76
2021/08/18 09:32:32;;;;;;;9.23;6.32;;;;;;;29.50;44.94;94466.38;4930313;29;20201;-75
2021/08/18 09:34:58;;;;;;;7.32;5.65;;;;;;;29.47;44.57;94470.44;4914152;29;20035;-73
2021/08/18 09:37:24;;;;;;;11.02;5.68;;;;;;;29.32;44.20;94465.41;4930131;29;20432;-73
2021/08/18 09:39:50;;;;;;;6.13;5.18;;;;;;;29.33;44.22;94468.88;4928033;29;20038;-72
2021/08/18 09:42:29;;;;;;;7.10;5.80;;;;;;;29.45;45.72;94469.94;4947873;29;20031;-73
2021/08/18 09:45:16;;;;;;;5.40;4.85;;;;;;;29.35;44.42;94462.16;4930867;29;20027;-72
2021/08/18 09:47:59;;;;;;;6.10;5.60;;;;;;;29.46;45.57;94465.41;4947365;29;20035;-72
2021/08/18 09:50:25;;;;;;;7.65;5.70;;;;;;;29.83;45.67;94462.44;4961266;28;20508;-73
2021/08/18 09:52:51;;;;;;;7.43;5.75;;;;;;;29.29;43.79;94447.34;4940619;28;20474;-77
2021/08/18 09:55:23;;;;;;;8.13;5.50;;;;;;;29.76;45.26;94452.13;4942246;28;20054;-74
2021/08/18 09:57:49;;;;;;;7.20;6.35;;;;;;;29.28;44.76;94454.56;4949219;28;20451;-75
2021/08/18 10:00:15;;;;;;;7.70;7.10;;;;;;;29.27;45.01;94449.53;4948277;28;20028;-75
2021/08/18 10:02:40;;;;;;;11.07;6.40;;;;;;;29.76;45.42;94454.03;4959190;28;20482;-74
2021/08/18 10:05:06;;;;;;;6.45;5.72;;;;;;;29.50;44.81;94447.69;4948773;28;20031;-74
2021/08/18 10:07:31;;;;;;;7.75;6.10;;;;;;;29.54;46.32;94454.03;4966505;28;20415;-75
2021/08/18 10:09:57;;;;;;;10.55;6.38;;;;;;;29.73;43.50;94447.41;4948548;28;20031;-74
2021/08/18 10:12:22;;;;;;;21.77;6.90;;;;;;;29.55;44.85;94444.91;4915977;28;20034;-74
2021/08/18 10:14:48;;;;;;;6.60;6.00;;;;;;;28.35;45.25;94446.22;4931318;28;20113;-74
2021/08/18 10:17:14;;;;;;;11.13;7.47;;;;;;;29.59;44.54;94437.88;4952309;28;20565;-74
2021/08/18 10:19:40;;;;;;;7.07;6.38;;;;;;;28.88;44.53;94441.25;4969062;28;20625;-73
2021/08/18 10:22:06;;;;;;;8.02;6.75;;;;;;;29.01;45.66;94435.91;4937456;28;20543;-75
2021/08/18 10:24:35;;;;;;;7.32;6.60;;;;;;;29.65;43.99;94434.00;4969873;28;20118;-75
2021/08/18 10:27:04;;;;;;;7.82;6.50;;;;;;;29.61;44.76;94433.00;4952429;28;20031;-75
2021/08/18 10:29:39;;;;;;;7.50;5.75;;;;;;;29.09;46.12;94431.75;4944583;28;20027;-75
2021/08/18 10:32:06;;;;;;;7.20;6.10;;;;;;;29.74;45.16;94427.63;4959568;28;20484;-75
2021/08/18 10:34:37;;;;;;;12.23;6.55;;;;;;;29.30;44.84;94438.25;4952105;28;20058;-74
2021/08/18 10:37:17;;;;;;;8.13;5.97;;;;;;;29.22;45.48;94434.38;4919978;28;20073;-75
2021/08/18 10:39:51;;;;;;;6.88;6.20;;;;;;;29.17;45.81;94431.03;4965965;28;20080;-74
2021/08/18 10:42:17;;;;;;;8.77;6.55;;;;;;;28.60;46.47;94422.56;4936965;28;20031;-75
2021/08/18 10:44:49;;;;;;;7.35;6.65;;;;;;;29.10;45.74;94422.63;4970924;28;20093;-75
2021/08/18 10:47:16;;;;;;;8.30;6.00;;;;;;;29.39;45.48;94414.28;4956587;28;20038;-75
2021/08/18 10:49:51;;;;;;;8.93;6.15;;;;;;;29.83;44.32;94418.94;4954269;28;20078;-74
2021/08/18 10:52:29;;;;;;;10.27;7.22;;;;;;;29.45;45.88;94413.88;4935234;28;20556;-77
2021/08/18 10:55:00;;;;;;;8.68;6.65;;;;;;;29.44;43.28;94408.84;4969838;28;20050;-76
2021/08/18 10:57:48;;;;;;;11.35;6.43;;;;;;;29.51;44.98;94412.66;4968753;28;20031;-75
2021/08/18 11:00:28;;;;;;;7.05;6.40;;;;;;;29.27;45.50;94402.28;4951440;28;20510;-75
2021/08/18 11:02:54;;;;;;;7.07;6.50;;;;;;;29.84;45.36;94389.22;4967915;28;20090;-76
2021/08/18 11:05:41;;;;;;;10.35;6.70;;;;;;;29.99;44.03;94385.41;4966403;28;20122;-74
2021/08/18 11:08:50;;;;;;;8.30;6.40;;;;;;;30.09;44.43;94379.78;4940697;28;20125;-76
2021/08/18 11:11:15;;;;;;;7.18;6.47;;;;;;;29.75;43.57;94381.13;4948417;28;20109;-76
2021/08/18 11:13:47;;;;;;;7.47;6.68;;;;;;;29.97;44.54;94376.88;4918144;28;20038;-75
2021/08/18 11:16:26;;;;;;;10.43;6.30;;;;;;;29.33;45.44;94384.25;4966415;28;20536;-76
2021/08/18 11:18:52;;;;;;;;;;;;;;;29.18;46.20;94385.38;4968385;28;20104;-74
2021/08/18 11:21:23;;;;;;;7.82;6.60;;;;;;;29.79;44.70;94376.75;4950103;28;19918;-74
2021/08/18 11:23:50;;;;;;;7.05;6.38;;;;;;;30.10;43.99;94370.66;4935379;28;20069;-75
2021/08/18 11:26:17;;;;;;;6.93;6.22;;;;;;;29.52;44.20;94370.75;4950188;28;20460;-74
2021/08/18 11:28:58;;;;;;;7.45;6.60;;;;;;;29.63;44.98;94367.53;4949392;28;20046;-71
2021/08/18 11:31:36;;;;;;;7.75;6.80;;;;;;;29.90;43.47;94363.94;4951451;28;20061;-74
2021/08/18 11:34:02;;;;;;;10.23;6.18;;;;;;;29.78;45.53;94364.50;4953925;28;20034;-77
2021/08/18 11:36:31;;;;;;;8.32;7.45;;;;;;;30.10;44.43;94366.13;4955991;28;20045;-74
2021/08/18 11:39:02;;;;;;;7.30;6.60;;;;;;;30.22;43.36;94360.19;4944848;28;20035;-76
2021/08/18 11:41:32;;;;;;;8.90;6.72;;;;;;;29.94;44.33;94354.25;4967033;28;20595;-73
2021/08/18 11:43:58;;;;;;;7.75;6.15;;;;;;;30.16;42.73;94351.53;4950950;28;20027;-76
2021/08/18 11:46:24;;;;;;;9.27;6.15;;;;;;;30.45;43.32;94351.03;4950008;28;20058;-76
2021/08/18 11:48:50;;;;;;;8.80;5.95;;;;;;;30.42;42.72;94346.31;4967413;28;20027;-76
2021/08/18 11:51:19;;;;;;;8.30;6.65;;;;;;;30.61;42.35;94338.81;4950241;28;20073;-75
2021/08/18 11:53:52;;;;;;;8.10;6.75;;;;;;;30.25;42.95;94338.19;4935536;28;20098;-76
2021/08/18 11:56:17;;;;;;;10.48;6.65;;;;;;;30.27;41.84;94334.13;4933605;28;20408;-75
2021/08/18 11:58:43;;;;;;;7.53;6.82;;;;;;;30.35;42.19;94332.56;4933598;28;20035;-74
2021/08/18 12:01:08;;;;;;;9.70;6.63;;;;;;;29.99;40.95;94323.94;4973397;28;20031;-74
2021/08/18 12:03:34;;;;;;;9.88;6.85;;;;;;;30.19;42.49;94320.69;4955798;28;20031;-77
2021/08/18 12:06:01;;;;;;;8.25;6.53;;;;;;;30.17;41.38;94312.22;4968077;28;20029;-76
2021/08/18 12:08:37;;;;;;;9.48;6.43;;;;;;;30.45;41.07;94310.91;4960352;28;20137;-75
2021/08/18 12:11:02;;;;;;;9.13;7.07;;;;;;;29.97;41.78;94307.41;4966373;28;20033;-78
2021/08/18 12:13:46;;;;;;;9.68;6.53;;;;;;;30.54;42.34;94317.06;4940329;28;20023;-74
2021/08/18 12:16:30;;;;;;;7.10;6.35;;;;;;;30.47;40.88;94299.94;4952263;28;20385;-76
2021/08/18 12:19:15;;;;;;;7.95;6.47;;;;;;;30.64;41.61;94306.09;4958856;28;20030;-77
2021/08/18 12:21:41;;;;;;;6.80;6.22;;;;;;;30.48;40.98;94302.28;4978721;28;20054;-74
2021/08/18 12:24:15;;;;;;;7.32;6.55;;;;;;;30.82;41.17;94293.53;4984705;28;20030;-75
2021/08/18 12:26:42;;;;;;;9.20;6.13;;;;;;;30.14;40.66;94294.13;4951181;28;20023;-77
2021/08/18 12:29:09;;;;;;;8.18;7.07;;;;;;;30.51;41.17;94290.94;4967658;28;20101;-74
2021/08/18 12:31:57;;;;;;;7.18;6.50;;;;;;;30.98;39.83;94294.69;4979506;28;20023;-75
2021/08/18 12:34:39;;;;;;;9.82;8.18;;;;;;;30.93;40.46;94285.97;4957817;28;20034;-75
2021/08/18 12:37:07;;;;;;;11.90;6.60;;;;;;;30.97;40.82;94289.63;4969977;28;20023;-72
2021/08/18 12:39:44;;;;;;;7.80;6.05;;;;;;;30.92;39.45;94281.75;4966443;28;20031;-75
2021/08/18 12:42:19;;;;;;;7.43;6.72;;;;;;;30.94;40.06;94283.00;4960268;28;20066;-76
2021/08/18 12:44:45;;;;;;;7.68;7.00;;;;;;;30.39;39.77;94274.69;4949428;28;20030;-77
2021/08/18 12:47:12;;;;;;;7.10;6.45;;;;;;;30.66;40.07;94279.84;4948463;28;20038;-75
2021/08/18 12:49:37;;;;;;;8.77;6.65;;;;;;;30.69;39.75;94279.19;4933160;28;20027;-75
2021/08/18 12:52:07;;;;;;;7.00;6.30;;;;;;;30.65;39.03;94278.25;4932912;28;20042;-76
2021/08/18 12:54:36;;;;;;;7.82;6.70;;;;;;;30.46;39.25;94275.06;4965494;28;20101;-71
2021/08/18 12:57:03;;;;;;;9.38;6.43;;;;;;;30.88;39.69;94283.47;4932931;28;20023;-74
2021/08/18 12:59:34;;;;;;;10.68;6.78;;;;;;;30.55;39.59;94285.78;4948463;28;20031;-74
2021/08/18 13:02:00;;;;;;;7.00;6.30;;;;;;;30.31;39.41;94275.47;4934699;29;20081;-75
2021/08/18 13:04:25;;;;;;;8.40;7.60;;;;;;;30.54;39.99;94273.50;4929111;29;20538;-75
2021/08/18 13:06:50;;;;;;;8.93;6.00;;;;;;;30.72;39.48;94277.78;4946273;29;20023;-71
2021/08/18 13:09:16;;;;;;;18.20;6.70;;;;;;;30.53;39.81;94277.28;4946460;29;20035;-69
2021/08/18 13:11:41;;;;;;;10.07;6.60;;;;;;;30.67;38.85;94275.25;4928998;29;20035;-71
2021/08/18 13:14:07;;;;;;;7.53;6.70;;;;;;;30.59;38.72;94276.81;4929306;29;20027;-74
2021/08/18 13:16:32;;;;;;;9.23;7.00;;;;;;;30.22;40.29;94271.97;4913030;29;20061;-75
2021/08/18 13:18:58;;;;;;;8.07;6.82;;;;;;;29.90;40.64;94266.97;4929487;29;20031;-75
2021/08/18 13:21:23;;;;;;;8.65;6.75;;;;;;;30.32;41.57;94266.34;4929164;29;20156;-73
2021/08/18 13:23:49;;;;;;;7.97;6.40;;;;;;;30.24;41.26;94262.56;4945632;29;20034;-73
2021/08/18 13:26:15;;;;;;;7.85;7.00;;;;;;;30.20;40.81;94258.13;4929039;29;20153;-75
2021/08/18 13:28:40;;;;;;;10.13;7.13;;;;;;;30.38;40.44;94256.28;4912209;29;20058;-75
2021/08/18 13:31:06;;;;;;;7.78;7.00;;;;;;;30.13;40.75;94255.13;4947229;28;20440;-72
2021/08/18 13:33:32;;;;;;;8.13;7.32;;;;;;;30.02;40.60;94246.59;4943564;29;20019;-74
2021/08/18 13:35:59;;;;;;;8.65;7.82;;;;;;;30.07;39.61;94246.47;4944603;29;20035;-74
2021/08/18 13:38:25;;;;;;;11.48;7.78;;;;;;;30.22;40.16;94240.69;4929331;29;20055;-73
2021/08/18 13:40:50;;;;;;;8.27;6.90;;;;;;;30.31;40.37;94232.72;4929177;29;20034;-76
2021/08/18 13:43:16;;;;;;;10.23;7.35;;;;;;;30.21;39.70;94238.34;4946900;29;20023;-74
2021/08/18 13:45:41;;;;;;;12.27;7.68;;;;;;;30.06;40.56;94230.72;4945313;28;20046;-74
2021/08/18 13:48:07;;;;;;;11.95;8.23;;;;;;;30.29;39.02;94229.53;4940026;28;20042;-74
2021/08/18 13:50:32;;;;;;;8.75;7.88;;;;;;;30.19;39.70;94227.16;4948284;28;20022;-73
2021/08/18 13:52:58;;;;;;;8.32;7.63;;;;;;;30.13;40.05;94228.41;4932604;28;20027;-74
2021/08/18 13:55:23;;;;;;;7.65;6.95;;;;;;;30.04;41.32;94230.25;4948240;28;20029;-75
2021/08/18 13:57:48;;;;;;;8.18;7.43;;;;;;;30.22;39.99;94229.19;4918177;29;20053;-75
2021/08/18 14:00:14;;;;;;;8.65;7.70;;;;;;;29.87;41.46;94225.66;4929663;29;20069;-73
2021/08/18 14:02:40;;;;;;;10.02;7.43;;;;;;;29.99;40.87;94225.06;4964893;28;20051;-75
2021/08/18 14:05:05;;;;;;;8.07;7.00;;;;;;;30.07;40.68;94226.97;4969465;28;20030;-74
2021/08/18 14:07:31;;;;;;;8.82;8.00;;;;;;;30.00;39.03;94223.97;4953962;28;20037;-75
2021/08/18 14:09:56;;;;;;;8.77;7.57;;;;;;;30.00;40.09;94223.97;4956234;28;20030;-74
2021/08/18 14:12:22;;;;;;;8.55;7.75;;;;;;;29.97;39.70;94221.91;4954459;28;20836;-74
2021/08/18 14:14:47;;;;;;;7.45;6.72;;;;;;;29.99;39.59;94214.38;4941452;28;20062;-75
2021/08/18 14:17:13;;;;;;;11.00;8.07;;;;;;;30.03;40.46;94215.31;4968776;28;20461;-76
2021/08/18 14:19:38;;;;;;;11.10;7.80;;;;;;;30.15;40.42;94223.56;4947695;28;20031;-72
2021/08/18 14:22:04;;;;;;;8.23;7.47;;;;;;;29.80;39.82;94220.72;4964242;28;20077;-74
2021/08/18 14:24:29;;;;;;;9.43;7.63;;;;;;;29.77;40.57;94215.22;4967480;28;20042;-76
2021/08/18 14:26:55;;;;;;;9.50;7.53;;;;;;;29.87;40.75;94209.63;4969334;28;20804;-75
2021/08/18 14:29:20;;;;;;;8.40;7.45;;;;;;;29.96;40.47;94202.41;4948127;28;20122;-75
2021/08/18 14:31:46;;;;;;;12.27;8.38;;;;;;;29.92;40.35;94208.69;4950909;28;20023;-74
2021/08/18 14:34:12;;;;;;;9.20;8.27;;;;;;;29.60;42.28;94207.94;4948188;28;20050;-73
2021/08/18 14:36:37;;;;;;;10.13;7.75;;;;;;;29.57;40.16;94207.75;4946727;28;20027;-75
2021/08/18 14:39:03;;;;;;;8.68;7.47;;;;;;;29.41;41.00;94207.34;4931815;28;20416;-76
2021/08/18 14:41:30;;;;;;;9.27;7.22;;;;;;;29.43;42.11;94201.72;4949594;28;20412;-75
2021/08/18 14:43:56;;;;;;;9.18;7.32;;;;;;;29.31;40.58;94212.97;4952129;28;20038;-75
2021/08/18 14:46:21;;;;;;;8.38;7.28;;;;;;;28.98;41.37;94211.63;4965783;28;20030;-75
2021/08/18 14:48:46;;;;;;;8.93;7.78;;;;;;;29.29;41.89;94220.47;4963279;28;20027;-74
2021/08/18 14:51:12;;;;;;;9.00;8.13;;;;;;;29.27;41.55;94215.47;4964810;28;20039;-76
2021/08/18 14:53:38;;;;;;;11.65;8.05;;;;;;;29.39;41.61;94214.88;4948468;28;20038;-74
2021/08/18 14:56:03;;;;;;;8.98;7.78;;;;;;;29.46;41.49;94217.13;4946696;28;20030;-75
2021/08/18 14:58:29;;;;;;;10.90;7.80;;;;;;;29.34;42.04;94223.03;4948008;28;20552;-75
2021/08/18 15:00:54;;;;;;;8.30;7.50;;;;;;;29.46;42.68;94219.78;4965501;28;20492;-75
2021/08/18 15:03:20;;;;;;;9.13;7.10;;;;;;;29.42;41.88;94213.47;4968748;28;20452;-75
2021/08/18 15:05:45;;;;;;;8.77;7.90;;;;;;;29.29;43.04;94220.47;4967914;28;20026;-72
2021/08/18 15:08:11;;;;;;;9.30;7.57;;;;;;;29.23;43.01;94227.00;4968565;28;20034;-72
2021/08/18 15:10:36;;;;;;;9.25;7.57;;;;;;;29.28;42.46;94226.91;4968938;28;20456;-75
2021/08/18 15:13:02;;;;;;;9.18;7.90;;;;;;;29.22;42.95;94231.53;4968219;28;20027;-75
2021/08/18 15:15:27;;;;;;;8.13;7.53;;;;;;;29.34;42.91;94239.03;4968045;28;20082;-75
2021/08/18 15:17:53;;;;;;;8.32;7.53;;;;;;;29.29;42.78;94239.16;4968216;28;20030;-75
2021/08/18 15:20:18;;;;;;;11.07;7.93;;;;;;;29.33;42.65;94248.13;4968625;28;20038;-75
2021/08/18 15:22:44;;;;;;;9.77;7.63;;;;;;;28.82;42.82;94247.75;4950573;28;20035;-72
2021/08/18 15:25:12;;;;;;;10.18;8.13;;;;;;;28.69;42.93;94236.81;4972251;28;20038;-75
2021/08/18 15:27:41;;;;;;;11.23;7.90;;;;;;;28.89;43.21;94253.44;4967730;28;20039;-74
2021/08/18 15:30:06;;;;;;;9.15;8.23;;;;;;;28.65;43.10;94254.50;4968243;28;20055;-74
2021/08/18 15:32:32;;;;;;;13.25;7.15;;;;;;;28.43;43.22;94259.75;4967994;28;20031;-74
2021/08/18 15:34:57;;;;;;;11.05;6.90;;;;;;;28.25;43.31;94268.69;4968954;28;20054;-78
2021/08/18 15:37:24;;;;;;;14.32;6.82;;;;;;;28.05;43.93;94274.38;4966710;28;20037;-73
2021/08/18 15:39:52;;;;;;;9.13;6.80;;;;;;;27.92;44.45;94283.94;4966603;28;20042;-73
2021/08/18 15:42:18;;;;;;;6.68;5.85;;;;;;;27.56;45.06;94283.00;4932517;28;20496;-74
2021/08/18 15:44:43;;;;;;;8.40;6.05;;;;;;;27.31;45.24;94286.84;4949931;28;20022;-73
2021/08/18 15:47:12;;;;;;;7.53;5.55;;;;;;;27.09;45.13;94299.97;4930050;28;20051;-75
2021/08/18 15:49:42;;;;;;;8.80;5.03;;;;;;;26.80;45.04;94299.31;4966637;28;20027;-74
2021/08/18 15:52:07;;;;;;;;;;;;;;;26.59;46.21;94304.09;4953712;28;20101;-74
2021/08/18 15:54:33;;;;;;;6.40;4.07;;;;;;;26.27;46.60;94309.28;4950084;28;19962;-72
2021/08/18 15:56:58;;;;;;;6.18;4.18;;;;;;;26.13;47.27;94317.13;4968188;28;20022;-72
2021/08/18 15:59:24;;;;;;;4.15;3.75;;;;;;;26.02;46.88;94319.09;4967617;28;20090;-72
2021/08/18 16:01:49;;;;;;;5.50;3.72;;;;;;;25.99;47.26;94318.88;4966311;28;20047;-73
2021/08/18 16:04:15;;;;;;;6.60;3.60;;;;;;;25.92;47.58;94313.91;4965992;28;20026;-74
2021/08/18 16:06:40;;;;;;;7.38;3.35;;;;;;;25.56;48.41;94278.97;4964936;28;20030;-71
2021/08/18 16:09:06;;;;;;;5.15;3.60;;;;;;;25.70;48.13;94308.28;4966317;28;20627;-71
2021/08/18 16:11:31;;;;;;;4.10;3.28;;;;;;;25.62;48.19;94309.66;4948409;28;20049;-74
2021/08/18 16:13:56;;;;;;;4.00;3.40;;;;;;;25.63;48.32;94308.63;4931262;29;20480;-74
2021/08/18 16:16:22;;;;;;;3.95;3.38;;;;;;;25.59;48.42;94317.44;4948933;29;20063;-75
2021/08/18 16:18:47;;;;;;;6.80;3.63;;;;;;;25.45;48.46;94317.25;4938421;28;20035;-74
2021/08/18 16:21:13;;;;;;;4.47;3.08;;;;;;;25.38;48.18;94319.41;4965720;28;20030;-73
2021/08/18 16:23:38;;;;;;;4.00;3.47;;;;;;;25.31;48.81;94328.75;4966523;28;20023;-74
2021/08/18 16:26:05;;;;;;;4.65;3.40;;;;;;;25.18;49.45;94330.19;4949764;28;20100;-73
2021/08/18 16:28:31;;;;;;;3.50;3.10;;;;;;;25.20;48.77;94340.53;4956526;28;20576;-72
2021/08/18 16:30:56;;;;;;;11.05;3.15;;;;;;;25.08;48.87;94346.16;4965666;28;20043;-74
2021/08/18 16:33:22;;;;;;;8.27;3.17;;;;;;;24.94;49.42;94351.31;4964417;28;20042;-73